Time;durP1;ratioP1;P1;durP2;ratioP2;P2;SDS_P1;SDS_P2;PMS_P1;PMS_P2;Temp;Humidity;BMP_temperature;BMP_pressure;BME280_temperature;BME280_humidity;BME280_pressure;Samples;Min_cycle;Max_cycle;Signal;HPM_P1;HPM_P2
2022/07/26 00:03:11;;;;;;;4.95;0.90;;;;;;;19.57;53.24;100014.81;10156599;29;20054;-76
2022/07/26 00:08:14;;;;;;;4.45;1.23;;;;;;;19.57;53.28;100020.28;10161048;29;20072;-76
2022/07/26 00:13:19;;;;;;;3.88;1.42;;;;;;;19.35;54.40;100008.47;10142251;29;20059;-77
2022/07/26 00:18:22;;;;;;;7.78;1.40;;;;;;;19.13;55.27;100013.84;10147921;29;20056;-76
2022/07/26 00:23:25;;;;;;;5.05;1.58;;;;;;;18.62;56.22;100007.41;10155574;29;20060;-76
2022/07/26 00:28:29;;;;;;;6.05;2.08;;;;;;;18.90;56.40;100013.97;10158036;29;20118;-77
2022/07/26 00:33:32;;;;;;;3.92;1.10;;;;;;;19.13;55.91;100013.00;10170489;29;20149;-76
2022/07/26 00:38:35;;;;;;;8.57;1.30;;;;;;;18.92;56.75;100013.75;10169934;29;20055;-77
2022/07/26 00:43:53;;;;;;;4.75;1.45;;;;;;;19.08;56.31;100012.72;10158906;29;20040;-76
2022/07/26 00:48:56;;;;;;;6.68;1.40;;;;;;;18.90;56.92;100008.53;10155705;29;20127;-76
2022/07/26 00:53:59;;;;;;;2.78;1.20;;;;;;;18.60;57.99;100029.38;10154055;29;20060;-76
2022/07/26 00:59:03;;;;;;;5.88;1.58;;;;;;;18.51;58.60;100022.31;10140735;29;20553;-76
2022/07/26 01:04:06;;;;;;;7.10;1.60;;;;;;;18.18;59.61;100019.91;10152886;29;20052;-76
2022/07/26 01:09:11;;;;;;;3.63;1.40;;;;;;;19.00;57.52;100019.09;10154263;29;20087;-75
2022/07/26 01:14:16;;;;;;;4.97;1.33;;;;;;;18.66;58.76;100023.19;10152061;29;20056;-76
2022/07/26 01:19:19;;;;;;;8.00;2.40;;;;;;;18.80;58.87;100019.66;10137852;29;20207;-76
2022/07/26 01:24:23;;;;;;;5.90;1.65;;;;;;;18.69;59.15;100019.25;10144179;29;20044;-75
2022/07/26 01:29:26;;;;;;;7.95;1.83;;;;;;;18.38;60.20;100019.41;10155524;29;20075;-76
2022/07/26 01:34:38;;;;;;;11.00;1.83;;;;;;;18.53;60.04;100018.38;10156863;29;20055;-76
2022/07/26 01:39:43;;;;;;;8.48;2.13;;;;;;;18.12;61.76;100018.75;10144199;29;20135;-75
2022/07/26 01:44:45;;;;;;;8.18;1.98;;;;;;;18.12;61.85;100026.91;10139187;29;20072;-76
2022/07/26 01:49:48;;;;;;;6.95;1.80;;;;;;;18.51;60.68;100022.31;10160862;29;20052;-75
2022/07/26 01:54:52;;;;;;;13.50;2.40;;;;;;;18.39;61.15;100029.25;10166614;29;20130;-76
2022/07/26 01:59:55;;;;;;;7.00;2.00;;;;;;;18.42;60.66;100026.16;10157749;29;20502;-75
2022/07/26 02:04:58;;;;;;;11.45;2.45;;;;;;;18.07;62.02;100042.06;10137760;29;20125;-76
2022/07/26 02:10:02;;;;;;;7.20;2.38;;;;;;;18.13;62.31;100033.22;10143594;29;20099;-76
2022/07/26 02:15:07;;;;;;;7.65;2.45;;;;;;;18.11;62.75;100040.69;10153692;29;20048;-75
2022/07/26 02:20:10;;;;;;;8.90;1.90;;;;;;;18.17;62.44;100037.25;10145737;29;20060;-76
2022/07/26 02:25:14;;;;;;;3.40;2.00;;;;;;;17.87;63.54;100047.13;10170574;29;20055;-76
2022/07/26 02:30:17;;;;;;;10.57;2.38;;;;;;;17.87;63.83;100047.97;10150722;29;20143;-76
2022/07/26 02:35:20;;;;;;;7.55;2.10;;;;;;;17.68;64.38;100043.84;10149762;29;20059;-76
2022/07/26 02:40:25;;;;;;;7.78;2.10;;;;;;;18.03;63.07;100052.47;10152087;29;20562;-76
2022/07/26 02:45:28;;;;;;;12.02;3.75;;;;;;;18.34;62.59;100052.38;10161681;29;20512;-76
2022/07/26 02:50:31;;;;;;;12.27;3.38;;;;;;;18.44;61.95;100056.75;10145478;29;20131;-76
2022/07/26 02:55:35;;;;;;;5.55;1.88;;;;;;;18.54;61.80;100057.31;10153726;29;20238;-76
2022/07/26 03:00:38;;;;;;;7.22;2.13;;;;;;;18.08;63.10;100058.22;10158406;29;20417;-76
2022/07/26 03:05:40;;;;;;;5.18;1.80;;;;;;;18.06;63.14;100057.53;10163128;29;20198;-76
2022/07/26 03:10:45;;;;;;;7.68;2.28;;;;;;;17.96;63.22;100056.91;10158679;29;20079;-76
2022/07/26 03:15:47;;;;;;;7.88;2.30;;;;;;;18.04;62.63;100059.59;10150748;29;20044;-77
2022/07/26 03:20:50;;;;;;;7.75;2.25;;;;;;;17.68;64.15;100062.84;10157464;29;20060;-76
2022/07/26 03:25:54;;;;;;;4.35;2.55;;;;;;;18.06;63.07;100070.28;10149094;29;20052;-76
2022/07/26 03:30:57;;;;;;;8.50;2.05;;;;;;;17.39;65.04;100070.81;10161370;29;20071;-77
2022/07/26 03:36:00;;;;;;;7.75;2.22;;;;;;;17.77;63.69;100071.81;10160363;29;20060;-77
2022/07/26 03:41:05;;;;;;;6.57;2.25;;;;;;;17.68;63.76;100068.28;10150869;29;20082;-76
2022/07/26 03:46:07;;;;;;;4.25;1.85;;;;;;;17.45;64.48;100072.81;10162347;29;20135;-76
2022/07/26 03:51:10;;;;;;;7.35;1.83;;;;;;;17.51;64.52;100082.13;10150390;29;20048;-77
2022/07/26 03:56:30;;;;;;;5.10;1.83;;;;;;;17.59;64.66;100077.50;10138838;29;20048;-76
2022/07/26 04:01:34;;;;;;;7.10;2.42;;;;;;;17.25;66.18;100075.97;10157622;29;20506;-77
2022/07/26 04:06:38;;;;;;;12.63;2.25;;;;;;;17.53;64.77;100085.53;10157373;29;20505;-77
2022/07/26 04:11:42;;;;;;;6.97;2.30;;;;;;;17.39;65.65;100087.97;10147493;29;20539;-76
2022/07/26 04:16:45;;;;;;;12.23;2.15;;;;;;;17.51;65.31;100084.84;10149592;29;20178;-76
2022/07/26 04:21:48;;;;;;;8.38;3.03;;;;;;;17.43;65.85;100089.28;10150642;29;20052;-76
2022/07/26 04:26:52;;;;;;;11.43;2.40;;;;;;;17.48;65.59;100091.47;10156435;29;20678;-76
2022/07/26 04:31:55;;;;;;;7.97;2.53;;;;;;;17.41;66.10;100077.75;10167425;29;20138;-76
2022/07/26 04:36:58;;;;;;;11.10;3.45;;;;;;;17.46;65.99;100088.91;10138799;29;21612;-77
2022/07/26 04:42:02;;;;;;;8.55;2.60;;;;;;;17.39;66.44;100095.25;10141585;29;20084;-76
2022/07/26 04:47:05;;;;;;;10.43;2.60;;;;;;;17.77;65.10;100098.09;10150542;29;20135;-76
2022/07/26 04:52:08;;;;;;;9.38;2.58;;;;;;;17.63;65.62;100095.13;10156081;29;20184;-76
2022/07/26 04:57:12;;;;;;;13.07;2.45;;;;;;;17.75;65.55;100102.91;10153869;29;20047;-76
2022/07/26 05:02:15;;;;;;;7.75;2.67;;;;;;;17.81;65.35;100092.16;10150064;29;20138;-76
2022/07/26 05:07:18;;;;;;;8.82;3.30;;;;;;;17.48;66.51;100102.34;10159209;29;20056;-76
2022/07/26 05:12:22;;;;;;;9.93;3.17;;;;;;;17.77;65.48;100109.84;10155869;29;20058;-76
2022/07/26 05:17:25;;;;;;;7.85;3.15;;;;;;;17.64;65.51;100112.28;10153926;29;20179;-76
2022/07/26 05:22:28;;;;;;;10.73;3.33;;;;;;;17.47;66.36;100109.66;10143060;29;20059;-76
2022/07/26 05:27:33;;;;;;;9.05;3.33;;;;;;;17.83;65.42;100113.72;10152919;29;20047;-76
2022/07/26 05:32:36;;;;;;;11.27;3.30;;;;;;;17.80;65.69;100105.91;10152890;29;20111;-76
2022/07/26 05:37:39;;;;;;;6.93;2.83;;;;;;;17.93;65.27;100109.72;10146244;29;20250;-76
2022/07/26 05:42:43;;;;;;;7.70;3.22;;;;;;;18.01;64.94;100111.59;10141237;29;20067;-76
2022/07/26 05:47:49;;;;;;;13.65;4.15;;;;;;;17.81;65.81;100122.03;10151236;29;20056;-76
2022/07/26 05:52:52;;;;;;;10.55;3.42;;;;;;;17.95;65.32;100130.47;10150287;29;20466;-76
2022/07/26 05:57:56;;;;;;;12.30;3.30;;;;;;;17.99;65.42;100131.81;10150511;29;20158;-76
2022/07/26 06:02:59;;;;;;;9.20;2.78;;;;;;;18.24;64.55;100129.78;10151787;29;20081;-76
2022/07/26 06:08:02;;;;;;;9.60;3.40;;;;;;;18.28;64.95;100133.84;10148315;29;20143;-76
2022/07/26 06:13:06;;;;;;;10.25;3.50;;;;;;;18.30;64.47;100139.94;10143819;29;20072;-76
2022/07/26 06:18:09;;;;;;;11.50;3.58;;;;;;;18.65;64.26;100146.66;10161656;28;20088;-76
2022/07/26 06:23:13;;;;;;;8.10;3.30;;;;;;;18.49;64.58;100144.06;10149881;29;20085;-76
2022/07/26 06:28:17;;;;;;;8.85;3.15;;;;;;;18.69;63.81;100152.56;10140907;29;20171;-75
2022/07/26 06:33:20;;;;;;;9.55;3.55;;;;;;;18.29;65.03;100147.25;10169366;29;20080;-76
2022/07/26 06:38:23;;;;;;;6.97;4.15;;;;;;;19.27;62.62;100144.72;10149762;29;20067;-75
2022/07/26 06:43:27;;;;;;;11.25;5.10;;;;;;;19.50;61.79;100144.59;10155864;29;20082;-76
2022/07/26 06:48:30;;;;;;;15.55;4.55;;;;;;;18.80;63.42;100158.44;10154468;29;20063;-76
2022/07/26 06:53:33;;;;;;;11.25;4.43;;;;;;;18.61;64.17;100158.91;10147627;29;21158;-76
2022/07/26 06:58:37;;;;;;;12.27;4.68;;;;;;;19.08;62.86;100160.56;10144457;29;20076;-76
2022/07/26 07:03:40;;;;;;;10.32;4.07;;;;;;;19.10;62.73;100166.66;10152908;29;21781;-76
2022/07/26 07:08:43;;;;;;;11.68;4.50;;;;;;;19.99;60.25;100163.09;10157972;29;20127;-76
2022/07/26 07:13:47;;;;;;;10.82;4.35;;;;;;;20.77;58.39;100167.72;10163418;29;20147;-76
2022/07/26 07:18:50;;;;;;;10.48;3.95;;;;;;;20.00;59.56;100168.38;10158455;29;20103;-76
2022/07/26 07:23:53;;;;;;;11.18;3.55;;;;;;;20.13;59.30;100164.97;10151330;29;20201;-76
2022/07/26 07:28:58;;;;;;;10.45;3.88;;;;;;;20.86;57.59;100187.53;10157999;29;20044;-77
2022/07/26 07:34:05;;;;;;;8.77;3.45;;;;;;;20.46;57.40;100195.34;10148006;29;20098;-75
2022/07/26 07:39:10;;;;;;;8.10;3.42;;;;;;;21.16;55.71;100176.47;10150150;29;20376;-77
2022/07/26 07:44:20;;;;;;;9.50;3.38;;;;;;;20.94;56.74;100187.38;10169284;29;20047;-77
2022/07/26 07:49:23;;;;;;;9.38;3.72;;;;;;;24.05;48.77;100180.16;10153843;29;20589;-76
2022/07/26 07:54:26;;;;;;;7.05;3.50;;;;;;;23.95;48.07;100189.91;10165182;29;20471;-77
2022/07/26 07:59:31;;;;;;;6.68;3.38;;;;;;;22.58;50.99;100188.75;10157187;28;20052;-77
2022/07/26 08:04:33;;;;;;;5.40;2.95;;;;;;;20.96;55.54;100187.22;10161536;29;20076;-76
2022/07/26 08:09:36;;;;;;;11.45;3.30;;;;;;;20.42;56.21;100195.91;10159461;29;20167;-77
2022/07/26 08:14:46;;;;;;;9.40;4.00;;;;;;;20.25;57.51;100189.84;10177707;29;20084;-76
2022/07/26 08:19:48;;;;;;;9.98;3.22;;;;;;;20.04;59.67;100190.63;10168343;29;20092;-76
2022/07/26 08:24:52;;;;;;;10.82;4.28;;;;;;;19.49;61.44;100200.97;10168224;29;20124;-76
2022/07/26 08:29:56;;;;;;;8.18;3.70;;;;;;;19.80;59.94;100210.84;10152838;29;20048;-76
2022/07/26 08:34:59;;;;;;;10.27;4.00;;;;;;;19.46;61.23;100206.81;10155172;29;20047;-75
2022/07/26 08:40:21;;;;;;;7.23;3.87;;;;;;;21.19;56.86;100214.28;10156243;29;20051;-76
2022/07/26 08:45:27;;;;;;;5.93;3.28;;;;;;;21.52;55.16;100216.44;10164672;29;20076;-76
2022/07/26 08:50:32;;;;;;;8.35;3.70;;;;;;;20.22;58.31;100223.78;10151979;29;20052;-77
2022/07/26 08:55:36;;;;;;;6.35;3.50;;;;;;;20.88;56.01;100217.38;10157814;29;20093;-80
2022/07/26 09:01:11;;;;;;;4.97;2.30;;;;;;;21.10;55.34;100245.53;10176293;29;20126;-79
2022/07/26 09:06:16;;;;;;;1.73;1.27;;;;;;;18.92;61.91;100264.97;10168302;29;20047;-79
2022/07/26 09:11:31;;;;;;;10.38;2.65;;;;;;;16.23;85.94;100272.53;10181117;28;20761;-78
2022/07/26 09:16:36;;;;;;;9.88;3.88;;;;;;;16.63;87.75;100281.81;10173728;29;21764;-80
2022/07/26 09:21:42;;;;;;;8.90;4.00;;;;;;;16.21;89.18;100315.22;10165394;29;20074;-78
2022/07/26 09:26:55;;;;;;;8.48;4.70;;;;;;;16.15;90.40;100315.84;10164420;29;21142;-77
2022/07/26 09:32:16;;;;;;;11.80;6.43;;;;;;;16.71;89.93;100308.97;10166009;29;20460;-78
2022/07/26 09:37:32;;;;;;;10.95;5.47;;;;;;;16.80;88.67;100309.81;10165530;29;20569;-78
2022/07/26 09:42:35;;;;;;;12.02;5.85;;;;;;;16.99;90.21;100314.09;10158376;29;20047;-78
2022/07/26 09:47:40;;;;;;;10.88;4.75;;;;;;;16.85;88.79;100320.19;10186672;28;20157;-78
2022/07/26 09:52:57;;;;;;;9.30;5.53;;;;;;;16.43;90.98;100321.06;10174918;28;20460;-78
2022/07/26 09:58:02;;;;;;;7.45;4.70;;;;;;;15.86;91.68;100329.75;10164709;28;20052;-78
2022/07/26 10:03:06;;;;;;;8.07;4.90;;;;;;;16.49;91.05;100325.84;10163959;29;20063;-78
2022/07/26 10:08:10;;;;;;;8.57;4.90;;;;;;;17.17;90.45;100324.84;10158640;29;20047;-78
2022/07/26 10:13:14;;;;;;;8.23;4.90;;;;;;;17.32;89.32;100338.56;10162526;29;20047;-78
2022/07/26 10:18:44;;;;;;;10.10;4.57;;;;;;;17.00;88.03;100342.91;10167162;28;20044;-78
2022/07/26 10:23:48;;;;;;;9.52;5.45;;;;;;;17.08;88.27;100347.50;10172319;29;20055;-78
2022/07/26 10:28:51;;;;;;;15.45;4.57;;;;;;;17.40;88.88;100354.88;10159029;28;21163;-77
2022/07/26 10:33:57;;;;;;;9.40;4.30;;;;;;;17.38;89.97;100356.91;10157413;28;20070;-78
2022/07/26 10:39:04;;;;;;;8.65;4.30;;;;;;;17.37;91.20;100380.47;10163023;28;20055;-79
2022/07/26 10:44:19;;;;;;;4.43;2.83;;;;;;;17.92;91.06;100374.34;10164699;28;20051;-78
2022/07/26 10:49:30;;;;;;;4.43;2.13;;;;;;;18.90;91.81;100372.34;10156813;28;20138;-78
2022/07/26 10:55:13;;;;;;;3.80;1.60;;;;;;;19.33;89.96;100384.44;10166632;29;20044;-77
2022/07/26 11:00:22;;;;;;;2.45;1.30;;;;;;;19.37;89.04;100393.13;10162969;29;20051;-80
2022/07/26 11:05:30;;;;;;;2.88;1.30;;;;;;;19.65;89.68;100383.38;10173812;29;21210;-79
2022/07/26 11:10:35;;;;;;;4.43;1.20;;;;;;;20.18;88.20;100396.16;10173211;29;20101;-79
2022/07/26 11:15:41;;;;;;;4.22;1.55;;;;;;;20.30;86.89;100390.06;10166607;29;20130;-79
2022/07/26 11:20:48;;;;;;;3.30;1.23;;;;;;;20.18;86.50;100398.88;10170740;29;20084;-79
2022/07/26 11:26:09;;;;;;;3.05;1.15;;;;;;;20.03;86.15;100398.88;10171189;29;20058;-79
2022/07/26 11:31:12;;;;;;;4.05;1.20;;;;;;;19.89;86.44;100403.28;10172442;29;20047;-79
2022/07/26 11:36:18;;;;;;;4.38;1.00;;;;;;;19.89;83.37;100408.72;10176581;29;20052;-79
2022/07/26 11:41:23;;;;;;;2.65;1.13;;;;;;;19.63;81.84;100420.00;10171726;29;20084;-80
2022/07/26 11:46:39;;;;;;;3.40;1.05;;;;;;;19.63;83.89;100417.28;10168015;29;20058;-79
2022/07/26 11:51:52;;;;;;;1.65;0.95;;;;;;;19.36;82.18;100418.66;10166869;29;20087;-80
2022/07/26 11:56:56;;;;;;;3.42;1.30;;;;;;;18.72;84.45;100433.25;10220637;28;20087;-80
2022/07/26 12:02:01;;;;;;;2.55;1.35;;;;;;;18.71;85.51;100441.63;10172524;29;20056;-80
2022/07/26 12:07:10;;;;;;;2.80;0.90;;;;;;;18.93;86.97;100426.41;10161356;29;20060;-80
2022/07/26 12:12:20;;;;;;;8.18;1.10;;;;;;;19.26;84.10;100428.94;10162784;29;20051;-80
2022/07/26 12:17:23;;;;;;;11.13;1.65;;;;;;;19.02;79.57;100431.63;10167668;29;20044;-80
2022/07/26 12:22:27;;;;;;;4.78;1.45;;;;;;;18.68;79.28;100436.53;10172294;29;20055;-80
2022/07/26 12:27:32;;;;;;;3.08;1.40;;;;;;;18.90;79.75;100426.78;10165658;29;21158;-81
2022/07/26 12:32:36;;;;;;;3.55;1.30;;;;;;;18.75;78.05;100432.91;10172038;29;20058;-80
2022/07/26 12:37:52;;;;;;;3.88;1.55;;;;;;;18.30;79.98;100437.16;10173540;29;20063;-80
2022/07/26 12:42:57;;;;;;;3.75;1.10;;;;;;;18.26;77.93;100446.66;10160999;29;20188;-79
2022/07/26 12:48:09;;;;;;;2.55;1.20;;;;;;;17.88;77.31;100438.22;10166859;29;20048;-79
2022/07/26 12:53:14;;;;;;;2.38;0.68;;;;;;;18.28;75.75;100449.22;10161273;29;20770;-79
2022/07/26 12:58:17;;;;;;;4.53;1.00;;;;;;;17.44;73.65;100456.69;10181053;29;20119;-78
2022/07/26 13:03:19;;;;;;;2.25;0.70;;;;;;;17.97;74.46;100443.63;10164175;29;20122;-79
2022/07/26 13:08:24;;;;;;;2.80;1.10;;;;;;;18.01;74.30;100447.72;10172658;29;20619;-78
2022/07/26 13:13:26;;;;;;;3.15;1.38;;;;;;;17.56;76.84;100459.94;10158041;29;20055;-79
2022/07/26 13:18:29;;;;;;;4.30;1.77;;;;;;;17.86;78.35;100455.69;10160306;29;20051;-79
2022/07/26 13:23:34;;;;;;;2.67;1.88;;;;;;;18.15;78.12;100466.06;10165394;29;20082;-79
2022/07/26 13:28:38;;;;;;;4.00;2.97;;;;;;;18.24;78.21;100458.72;10179218;29;20055;-79
2022/07/26 13:33:41;;;;;;;2.45;2.25;;;;;;;18.05;79.60;100454.53;10162429;29;20525;-79
2022/07/26 13:38:45;;;;;;;3.90;2.47;;;;;;;17.67;79.24;100455.00;10162070;29;20490;-79
2022/07/26 13:43:49;;;;;;;2.80;2.17;;;;;;;17.86;80.76;100448.41;10170392;29;20060;-79
2022/07/26 13:48:53;;;;;;;2.85;1.98;;;;;;;17.72;77.36;100454.53;10148379;29;21450;-80
2022/07/26 13:54:04;;;;;;;3.85;2.67;;;;;;;17.25;79.77;100477.69;10166751;29;20058;-80
2022/07/26 13:59:07;;;;;;;4.95;2.50;;;;;;;16.61;82.60;100489.94;10183371;29;20526;-81
2022/07/26 14:04:10;;;;;;;4.25;2.60;;;;;;;16.41;82.00;100494.75;10206535;29;20107;-79
2022/07/26 14:09:17;;;;;;;4.35;3.38;;;;;;;16.89;81.85;100501.44;10206827;28;20048;-79
2022/07/26 14:14:22;;;;;;;4.50;2.97;;;;;;;17.38;80.82;100501.63;10174396;29;20088;-80
2022/07/26 14:19:26;;;;;;;4.30;2.67;;;;;;;17.57;81.11;100505.06;10168038;28;20255;-80
2022/07/26 14:24:30;;;;;;;7.28;2.20;;;;;;;17.57;80.07;100513.22;10161323;29;20070;-80
2022/07/26 14:29:33;;;;;;;3.40;2.00;;;;;;;17.80;79.51;100508.84;10180778;29;20539;-81
2022/07/26 14:34:35;;;;;;;5.53;2.15;;;;;;;17.71;78.55;100512.56;10162638;29;20056;-80
2022/07/26 14:39:40;;;;;;;3.65;1.92;;;;;;;17.85;78.77;100522.78;10178562;29;20059;-80
2022/07/26 14:44:42;;;;;;;4.40;1.80;;;;;;;18.34;76.78;100520.06;10159101;29;20055;-80
2022/07/26 14:49:46;;;;;;;5.13;1.35;;;;;;;18.18;75.80;100527.38;10165920;29;20095;-80
2022/07/26 14:54:50;;;;;;;3.63;1.50;;;;;;;18.16;75.30;100527.59;10169859;29;20093;-79
2022/07/26 14:59:53;;;;;;;3.95;1.30;;;;;;;18.15;74.52;100531.28;10152254;29;20074;-79
2022/07/26 15:04:57;;;;;;;2.97;1.90;;;;;;;18.51;74.20;100525.47;10173629;29;20525;-79
2022/07/26 15:10:02;;;;;;;2.72;1.38;;;;;;;18.65;72.89;100519.34;10159752;29;20076;-79
2022/07/26 15:15:07;;;;;;;5.90;1.50;;;;;;;18.90;77.01;100519.31;10175813;29;20052;-79
2022/07/26 15:20:10;;;;;;;5.30;1.83;;;;;;;19.29;71.90;100513.84;10167325;29;20054;-79
2022/07/26 15:25:14;;;;;;;2.17;0.80;;;;;;;19.89;75.16;100509.56;10160423;29;20573;-78
2022/07/26 15:30:17;;;;;;;6.25;1.05;;;;;;;20.17;69.34;100518.03;10171227;29;20052;-79
2022/07/26 15:35:20;;;;;;;6.03;1.00;;;;;;;20.10;68.35;100511.59;10161959;29;20043;-80
2022/07/26 15:40:25;;;;;;;1.67;0.80;;;;;;;20.07;65.58;100518.25;10163767;28;20134;-78
2022/07/26 15:45:28;;;;;;;3.80;0.95;;;;;;;20.23;63.77;100517.28;10162203;29;20047;-80
2022/07/26 15:50:34;;;;;;;6.00;1.08;;;;;;;20.54;67.78;100511.75;10160443;29;20123;-79
2022/07/26 15:55:39;;;;;;;3.20;1.10;;;;;;;20.55;60.54;100507.13;10160552;29;20595;-79
2022/07/26 16:00:42;;;;;;;2.75;0.88;;;;;;;20.79;59.42;100512.31;10164225;29;20110;-79
2022/07/26 16:05:46;;;;;;;5.10;1.38;;;;;;;21.77;63.84;100503.84;10162749;29;20055;-80
2022/07/26 16:10:50;;;;;;;4.47;1.00;;;;;;;23.60;49.03;100495.34;10170006;28;20078;-80
2022/07/26 16:15:54;;;;;;;4.38;0.93;;;;;;;22.40;53.56;100507.56;10169733;29;20047;-78
2022/07/26 16:20:56;;;;;;;4.15;0.77;;;;;;;21.27;53.90;100503.72;10181917;29;20051;-79
2022/07/26 16:26:01;;;;;;;2.97;1.00;;;;;;;20.72;53.82;100499.59;10157563;29;20052;-79
2022/07/26 16:31:04;;;;;;;3.80;0.90;;;;;;;20.90;56.35;100501.94;10168039;29;20051;-79
2022/07/26 16:36:07;;;;;;;5.53;1.40;;;;;;;20.61;55.39;100508.25;10166130;29;20126;-77
2022/07/26 16:41:11;;;;;;;5.70;0.98;;;;;;;20.48;55.31;100500.69;10183448;29;20107;-79
2022/07/26 16:46:14;;;;;;;7.47;1.08;;;;;;;20.79;53.51;100503.28;10158520;29;20520;-79
2022/07/26 16:51:17;;;;;;;2.63;0.70;;;;;;;20.87;54.17;100502.31;10163256;29;20052;-79
2022/07/26 16:56:21;;;;;;;3.53;0.63;;;;;;;21.55;53.67;100495.59;10173563;29;20084;-79
2022/07/26 17:01:24;;;;;;;3.05;1.23;;;;;;;21.28;52.29;100502.66;10159893;29;20047;-79
2022/07/26 17:06:27;;;;;;;3.83;0.88;;;;;;;22.65;50.75;100497.00;10176195;28;20422;-78
2022/07/26 17:11:31;;;;;;;6.88;1.77;;;;;;;21.76;51.78;100502.19;10166200;28;20051;-79
2022/07/26 17:16:34;;;;;;;4.68;1.00;;;;;;;20.85;53.52;100510.69;10179353;28;20057;-78
2022/07/26 17:21:38;;;;;;;3.97;1.13;;;;;;;20.54;54.01;100510.88;10174135;28;20407;-78
2022/07/26 17:26:42;;;;;;;5.25;1.38;;;;;;;20.16;55.12;100515.47;10171937;28;20048;-78
2022/07/26 17:31:45;;;;;;;3.28;1.08;;;;;;;19.89;55.32;100515.03;10183040;28;20060;-78
2022/07/26 17:36:56;;;;;;;5.35;1.90;;;;;;;19.98;55.24;100508.47;10183502;28;20063;-78
2022/07/26 17:42:01;;;;;;;6.55;1.30;;;;;;;19.95;55.17;100506.13;10173705;28;20075;-79
2022/07/26 17:47:04;;;;;;;8.25;1.65;;;;;;;19.87;54.98;100517.91;10169982;29;20059;-79
2022/07/26 17:52:27;;;;;;;7.00;1.30;;;;;;;19.78;54.09;100521.75;10158250;29;20111;-79
2022/07/26 17:57:31;;;;;;;5.30;1.77;;;;;;;19.62;53.33;100535.47;10209307;28;20051;-79
2022/07/26 18:02:34;;;;;;;6.25;1.40;;;;;;;19.16;53.81;100538.06;10206338;29;20050;-79
2022/07/26 18:07:37;;;;;;;8.13;1.42;;;;;;;19.15;54.66;100542.69;10187049;29;20048;-79
2022/07/26 18:18:46;;;;;;;10.57;1.80;;;;;;;19.04;54.62;100540.34;10097672;29;20151;-77
2022/07/26 18:23:48;;;;;;;7.35;1.35;;;;;;;19.01;54.64;100535.25;10104262;29;20355;-78
2022/07/26 18:29:11;;;;;;;;;;;;;;;19.16;54.43;100543.53;10133535;29;20155;-76
2022/07/26 18:34:16;;;;;;;7.80;1.73;;;;;;;19.04;53.91;100543.06;10130671;29;20382;-77
2022/07/26 18:39:19;;;;;;;8.50;1.92;;;;;;;18.95;55.24;100553.13;10145779;29;20084;-75
2022/07/26 18:44:21;;;;;;;9.77;2.65;;;;;;;18.70;54.75;100556.91;10131046;29;20481;-76
2022/07/26 18:49:25;;;;;;;7.57;1.95;;;;;;;18.63;56.07;100542.31;10129757;29;20131;-76
2022/07/26 18:54:32;;;;;;;7.60;1.55;;;;;;;18.50;56.13;100538.22;10130038;29;20089;-76
2022/07/26 18:59:35;;;;;;;6.90;1.83;;;;;;;18.40;56.46;100548.44;10130943;29;20518;-76
2022/07/26 19:04:42;;;;;;;6.28;1.70;;;;;;;18.32;56.75;100557.47;10129750;29;20072;-76
2022/07/26 19:09:45;;;;;;;6.40;1.67;;;;;;;18.24;56.79;100565.63;10130962;29;20104;-75
2022/07/26 19:14:48;;;;;;;4.70;1.48;;;;;;;18.09;55.86;100570.03;10130220;29;20068;-76
2022/07/26 19:19:53;;;;;;;6.72;1.70;;;;;;;17.91;55.53;100565.59;10130116;29;20104;-75
2022/07/26 19:24:58;;;;;;;9.75;1.70;;;;;;;17.70;55.93;100576.06;10135932;29;20116;-76
2022/07/26 19:30:01;;;;;;;7.45;1.50;;;;;;;17.73;56.42;100577.59;10138266;29;20491;-76
2022/07/26 19:35:09;;;;;;;10.40;1.55;;;;;;;17.64;56.66;100587.59;10137250;29;20127;-75
2022/07/26 19:40:13;;;;;;;8.30;1.70;;;;;;;17.51;59.39;100585.34;10134978;29;20100;-76
2022/07/26 19:45:16;;;;;;;11.52;1.88;;;;;;;17.40;61.06;100591.09;10133417;29;20060;-75
2022/07/26 19:50:20;;;;;;;8.45;1.75;;;;;;;17.26;60.64;100592.56;10137217;29;20052;-76
2022/07/26 19:55:23;;;;;;;8.45;1.23;;;;;;;16.96;59.78;100602.03;10136613;29;20055;-76
2022/07/26 20:00:27;;;;;;;2.47;1.10;;;;;;;16.89;59.10;100599.09;10137091;29;20108;-76
2022/07/26 20:05:31;;;;;;;11.77;1.80;;;;;;;16.80;58.92;100600.91;10136466;29;20113;-76
2022/07/26 20:10:35;;;;;;;7.07;1.55;;;;;;;16.69;58.75;100611.19;10135458;29;20528;-76
2022/07/26 20:15:38;;;;;;;5.28;1.45;;;;;;;16.64;59.15;100608.09;10135676;29;20446;-75
2022/07/26 20:20:42;;;;;;;8.80;1.50;;;;;;;16.51;58.57;100616.63;10136484;29;20049;-76
2022/07/26 20:25:45;;;;;;;4.68;1.05;;;;;;;16.54;57.31;100638.88;10151338;29;20068;-76
2022/07/26 20:30:50;;;;;;;5.28;1.65;;;;;;;16.50;56.49;100629.34;10136195;29;20494;-75
2022/07/26 20:35:54;;;;;;;5.82;1.40;;;;;;;16.39;56.74;100629.59;10133271;29;20059;-74
2022/07/26 20:40:57;;;;;;;7.53;1.02;;;;;;;16.39;56.39;100637.72;10135148;29;20494;-74
2022/07/26 20:46:03;;;;;;;6.53;1.20;;;;;;;16.31;55.89;100634.94;10135298;29;20135;-75
2022/07/26 20:51:08;;;;;;;5.07;1.50;;;;;;;16.26;55.56;100639.97;10135484;29;20506;-74
2022/07/26 20:56:15;;;;;;;5.80;1.20;;;;;;;16.23;55.92;100641.09;10135074;29;20096;-74
2022/07/26 21:01:18;;;;;;;7.85;1.40;;;;;;;16.19;55.22;100655.16;10134669;29;20075;-74
2022/07/26 21:06:23;;;;;;;6.20;0.90;;;;;;;16.22;56.04;100655.69;10134165;29;20045;-75
2022/07/26 21:11:30;;;;;;;7.55;1.40;;;;;;;16.18;55.52;100653.41;10134929;29;20052;-76
2022/07/26 21:16:32;;;;;;;4.43;1.40;;;;;;;16.15;55.91;100652.75;10130270;29;20045;-76
2022/07/26 21:21:37;;;;;;;3.15;0.95;;;;;;;16.12;56.19;100657.59;10125699;29;20055;-75
2022/07/26 21:26:40;;;;;;;2.40;1.30;;;;;;;16.06;56.33;100664.50;10131693;29;20471;-75
2022/07/26 21:31:42;;;;;;;5.47;1.13;;;;;;;15.93;56.58;100677.56;10134059;29;20502;-75
2022/07/26 21:36:47;;;;;;;6.47;1.85;;;;;;;15.90;56.81;100676.00;10133394;29;20056;-76
2022/07/26 21:41:49;;;;;;;3.95;1.00;;;;;;;15.88;56.42;100683.44;10133623;29;20045;-75
2022/07/26 21:46:53;;;;;;;4.68;1.10;;;;;;;15.92;56.66;100683.97;10132667;29;20052;-76
2022/07/26 21:51:58;;;;;;;4.15;1.02;;;;;;;15.89;56.43;100681.59;10119204;29;20040;-76
2022/07/26 21:57:01;;;;;;;10.70;1.52;;;;;;;15.81;57.03;100689.63;10132916;29;20048;-75
2022/07/26 22:02:04;;;;;;;4.53;1.30;;;;;;;15.75;56.83;100690.22;10133437;29;20045;-77
2022/07/26 22:07:08;;;;;;;5.75;1.25;;;;;;;15.67;56.61;100691.81;10132933;29;20060;-76
2022/07/26 22:12:11;;;;;;;2.65;0.95;;;;;;;15.69;56.09;100689.81;10132431;29;20037;-75
2022/07/26 22:17:13;;;;;;;5.97;0.90;;;;;;;15.75;56.18;100696.47;10132610;29;20509;-75
2022/07/26 22:22:17;;;;;;;2.33;0.82;;;;;;;15.81;56.58;100709.41;10132218;29;20092;-76
2022/07/26 22:27:20;;;;;;;3.58;1.67;;;;;;;15.83;56.64;100690.31;10132354;29;20105;-77
2022/07/26 22:32:23;;;;;;;6.20;1.17;;;;;;;15.83;56.45;100695.75;10132252;29;20517;-75
2022/07/26 22:37:27;;;;;;;6.00;1.30;;;;;;;15.73;56.21;100698.47;10133544;29;20108;-75
2022/07/26 22:42:30;;;;;;;3.35;0.95;;;;;;;15.77;56.54;100694.50;10131753;29;20052;-75
2022/07/26 22:47:33;;;;;;;5.65;2.25;;;;;;;15.70;56.54;100702.34;10131841;29;20120;-77
2022/07/26 22:52:40;;;;;;;2.88;1.00;;;;;;;15.70;56.93;100699.63;10131627;29;20048;-75
2022/07/26 22:57:44;;;;;;;4.63;1.42;;;;;;;15.66;57.12;100700.06;10134255;29;20475;-75
2022/07/26 23:02:47;;;;;;;3.03;0.82;;;;;;;15.62;56.94;100690.56;10139535;29;20117;-76
2022/07/26 23:07:52;;;;;;;3.10;0.90;;;;;;;15.53;57.42;100683.34;10139441;29;20113;-76
2022/07/26 23:12:56;;;;;;;6.32;1.13;;;;;;;15.32;57.62;100689.78;10135476;29;20045;-76
2022/07/26 23:17:59;;;;;;;4.55;1.02;;;;;;;15.18;57.81;100692.97;10138881;29;20049;-76
2022/07/26 23:23:03;;;;;;;2.63;0.73;;;;;;;15.16;57.95;100689.56;10138539;29;20077;-77
2022/07/26 23:28:06;;;;;;;4.05;1.08;;;;;;;15.14;58.01;100703.25;10153502;29;20470;-77